sensor_id;sensor_type;location;lat;lon;timestamp;P1;durP1;ratioP1;P2;durP2;ratioP2
4232;SDS011;2130;48.472;11.934;2022-12-07T00:01:32;4.07;;;2.50;;
4232;SDS011;2130;48.472;11.934;2022-12-07T00:04:02;3.87;;;2.07;;
4232;SDS011;2130;48.472;11.934;2022-12-07T00:06:31;6.00;;;2.60;;
4232;SDS011;2130;48.472;11.934;2022-12-07T00:09:00;3.77;;;2.33;;
4232;SDS011;2130;48.472;11.934;2022-12-07T00:11:29;2.53;;;1.87;;
4232;SDS011;2130;48.472;11.934;2022-12-07T00:13:58;3.30;;;1.70;;
4232;SDS011;2130;48.472;11.934;2022-12-07T00:16:28;5.03;;;2.27;;
4232;SDS011;2130;48.472;11.934;2022-12-07T00:18:57;2.77;;;2.10;;
4232;SDS011;2130;48.472;11.934;2022-12-07T00:21:25;4.03;;;2.10;;
4232;SDS011;2130;48.472;11.934;2022-12-07T00:23:55;1.97;;;1.70;;
4232;SDS011;2130;48.472;11.934;2022-12-07T00:26:24;3.07;;;2.07;;
4232;SDS011;2130;48.472;11.934;2022-12-07T00:28:55;2.33;;;1.90;;
4232;SDS011;2130;48.472;11.934;2022-12-07T00:31:26;2.80;;;1.97;;
4232;SDS011;2130;48.472;11.934;2022-12-07T00:33:56;3.43;;;2.47;;
4232;SDS011;2130;48.472;11.934;2022-12-07T00:36:25;2.20;;;1.70;;
4232;SDS011;2130;48.472;11.934;2022-12-07T00:38:53;2.93;;;2.17;;
4232;SDS011;2130;48.472;11.934;2022-12-07T00:41:22;3.90;;;2.50;;
4232;SDS011;2130;48.472;11.934;2022-12-07T00:43:51;3.07;;;2.33;;
4232;SDS011;2130;48.472;11.934;2022-12-07T00:46:21;2.53;;;2.10;;
4232;SDS011;2130;48.472;11.934;2022-12-07T00:48:50;5.27;;;2.37;;
4232;SDS011;2130;48.472;11.934;2022-12-07T00:51:19;2.97;;;2.07;;
4232;SDS011;2130;48.472;11.934;2022-12-07T00:53:48;2.10;;;1.73;;
4232;SDS011;2130;48.472;11.934;2022-12-07T00:56:17;3.70;;;2.00;;
4232;SDS011;2130;48.472;11.934;2022-12-07T00:58:49;2.30;;;2.00;;
4232;SDS011;2130;48.472;11.934;2022-12-07T01:01:18;2.70;;;2.00;;
4232;SDS011;2130;48.472;11.934;2022-12-07T01:03:48;2.03;;;1.70;;
4232;SDS011;2130;48.472;11.934;2022-12-07T01:06:16;2.37;;;1.93;;
4232;SDS011;2130;48.472;11.934;2022-12-07T01:08:45;2.40;;;1.80;;
4232;SDS011;2130;48.472;11.934;2022-12-07T01:11:17;3.23;;;1.87;;
4232;SDS011;2130;48.472;11.934;2022-12-07T01:13:46;1.73;;;1.60;;
4232;SDS011;2130;48.472;11.934;2022-12-07T01:16:15;2.27;;;1.80;;
4232;SDS011;2130;48.472;11.934;2022-12-07T01:18:45;2.93;;;1.87;;
4232;SDS011;2130;48.472;11.934;2022-12-07T01:21:16;5.40;;;1.60;;
4232;SDS011;2130;48.472;11.934;2022-12-07T01:23:47;2.50;;;1.87;;
4232;SDS011;2130;48.472;11.934;2022-12-07T01:26:16;2.73;;;1.83;;
4232;SDS011;2130;48.472;11.934;2022-12-07T01:28:46;3.50;;;2.00;;
4232;SDS011;2130;48.472;11.934;2022-12-07T01:31:14;2.90;;;1.70;;
4232;SDS011;2130;48.472;11.934;2022-12-07T01:33:45;3.27;;;2.10;;
4232;SDS011;2130;48.472;11.934;2022-12-07T01:36:16;2.30;;;1.53;;
4232;SDS011;2130;48.472;11.934;2022-12-07T01:38:45;3.13;;;1.77;;
4232;SDS011;2130;48.472;11.934;2022-12-07T01:41:14;3.10;;;1.93;;
4232;SDS011;2130;48.472;11.934;2022-12-07T01:46:39;3.00;;;1.90;;
4232;SDS011;2130;48.472;11.934;2022-12-07T01:49:08;2.40;;;1.83;;
4232;SDS011;2130;48.472;11.934;2022-12-07T01:51:40;3.83;;;2.10;;
4232;SDS011;2130;48.472;11.934;2022-12-07T01:54:08;5.60;;;2.47;;
4232;SDS011;2130;48.472;11.934;2022-12-07T01:56:37;3.33;;;2.13;;
4232;SDS011;2130;48.472;11.934;2022-12-07T01:59:07;3.33;;;2.07;;
4232;SDS011;2130;48.472;11.934;2022-12-07T02:01:36;3.57;;;2.30;;
4232;SDS011;2130;48.472;11.934;2022-12-07T02:04:04;2.43;;;1.90;;
4232;SDS011;2130;48.472;11.934;2022-12-07T02:06:33;2.70;;;1.90;;
4232;SDS011;2130;48.472;11.934;2022-12-07T02:09:04;5.40;;;2.30;;
4232;SDS011;2130;48.472;11.934;2022-12-07T02:11:32;3.90;;;2.10;;
4232;SDS011;2130;48.472;11.934;2022-12-07T02:14:00;4.00;;;2.50;;
4232;SDS011;2130;48.472;11.934;2022-12-07T02:16:31;3.40;;;1.80;;
4232;SDS011;2130;48.472;11.934;2022-12-07T02:19:07;2.47;;;1.77;;
4232;SDS011;2130;48.472;11.934;2022-12-07T02:21:50;3.97;;;2.10;;
4232;SDS011;2130;48.472;11.934;2022-12-07T02:24:28;2.90;;;2.13;;
4232;SDS011;2130;48.472;11.934;2022-12-07T02:30:02;4.43;;;2.83;;
4232;SDS011;2130;48.472;11.934;2022-12-07T02:32:35;3.60;;;2.40;;
4232;SDS011;2130;48.472;11.934;2022-12-07T02:35:09;1.90;;;1.57;;
4232;SDS011;2130;48.472;11.934;2022-12-07T02:37:41;4.17;;;2.23;;
4232;SDS011;2130;48.472;11.934;2022-12-07T02:40:12;2.13;;;1.90;;
4232;SDS011;2130;48.472;11.934;2022-12-07T02:42:46;2.83;;;1.90;;
4232;SDS011;2130;48.472;11.934;2022-12-07T02:45:20;3.87;;;2.00;;
4232;SDS011;2130;48.472;11.934;2022-12-07T02:47:50;3.00;;;1.70;;
4232;SDS011;2130;48.472;11.934;2022-12-07T02:50:19;2.33;;;1.90;;
4232;SDS011;2130;48.472;11.934;2022-12-07T02:52:48;2.53;;;2.10;;
4232;SDS011;2130;48.472;11.934;2022-12-07T02:55:17;2.93;;;2.30;;
4232;SDS011;2130;48.472;11.934;2022-12-07T02:57:54;3.53;;;1.77;;
4232;SDS011;2130;48.472;11.934;2022-12-07T03:00:30;2.87;;;2.10;;
4232;SDS011;2130;48.472;11.934;2022-12-07T03:03:00;3.90;;;2.00;;
4232;SDS011;2130;48.472;11.934;2022-12-07T03:05:36;3.80;;;2.33;;
4232;SDS011;2130;48.472;11.934;2022-12-07T03:08:23;3.23;;;1.90;;
4232;SDS011;2130;48.472;11.934;2022-12-07T03:10:58;3.43;;;2.03;;
4232;SDS011;2130;48.472;11.934;2022-12-07T03:13:28;3.40;;;1.97;;
4232;SDS011;2130;48.472;11.934;2022-12-07T03:16:01;2.77;;;1.57;;
4232;SDS011;2130;48.472;11.934;2022-12-07T03:18:31;2.60;;;1.97;;
4232;SDS011;2130;48.472;11.934;2022-12-07T03:21:02;3.70;;;2.40;;
4232;SDS011;2130;48.472;11.934;2022-12-07T03:23:33;3.47;;;2.30;;
4232;SDS011;2130;48.472;11.934;2022-12-07T03:26:02;2.40;;;1.93;;
4232;SDS011;2130;48.472;11.934;2022-12-07T03:28:31;3.20;;;2.40;;
4232;SDS011;2130;48.472;11.934;2022-12-07T03:31:03;3.53;;;1.80;;
4232;SDS011;2130;48.472;11.934;2022-12-07T03:33:36;3.33;;;2.00;;
4232;SDS011;2130;48.472;11.934;2022-12-07T03:36:08;2.90;;;1.60;;
4232;SDS011;2130;48.472;11.934;2022-12-07T03:38:39;3.73;;;2.20;;
4232;SDS011;2130;48.472;11.934;2022-12-07T03:41:09;4.50;;;2.10;;
4232;SDS011;2130;48.472;11.934;2022-12-07T03:43:40;3.80;;;2.60;;
4232;SDS011;2130;48.472;11.934;2022-12-07T03:46:14;2.33;;;1.90;;
4232;SDS011;2130;48.472;11.934;2022-12-07T03:48:46;4.00;;;2.50;;
4232;SDS011;2130;48.472;11.934;2022-12-07T03:51:20;4.40;;;2.60;;
4232;SDS011;2130;48.472;11.934;2022-12-07T03:53:51;2.57;;;1.97;;
4232;SDS011;2130;48.472;11.934;2022-12-07T03:56:21;2.50;;;1.80;;
4232;SDS011;2130;48.472;11.934;2022-12-07T03:58:50;2.63;;;1.60;;
4232;SDS011;2130;48.472;11.934;2022-12-07T04:01:22;2.40;;;1.80;;
4232;SDS011;2130;48.472;11.934;2022-12-07T04:03:50;5.63;;;2.13;;
4232;SDS011;2130;48.472;11.934;2022-12-07T04:06:18;3.13;;;1.97;;
4232;SDS011;2130;48.472;11.934;2022-12-07T04:08:46;3.27;;;2.17;;
4232;SDS011;2130;48.472;11.934;2022-12-07T04:11:14;2.30;;;2.00;;
4232;SDS011;2130;48.472;11.934;2022-12-07T04:13:42;3.33;;;2.10;;
4232;SDS011;2130;48.472;11.934;2022-12-07T04:16:29;2.57;;;1.67;;
4232;SDS011;2130;48.472;11.934;2022-12-07T04:18:57;3.20;;;1.80;;
4232;SDS011;2130;48.472;11.934;2022-12-07T04:21:25;3.43;;;2.20;;
4232;SDS011;2130;48.472;11.934;2022-12-07T04:23:53;3.47;;;2.00;;
4232;SDS011;2130;48.472;11.934;2022-12-07T04:26:21;3.43;;;1.90;;
4232;SDS011;2130;48.472;11.934;2022-12-07T04:28:49;3.43;;;2.00;;
4232;SDS011;2130;48.472;11.934;2022-12-07T04:31:17;2.80;;;1.53;;
4232;SDS011;2130;48.472;11.934;2022-12-07T04:33:46;3.13;;;1.97;;
4232;SDS011;2130;48.472;11.934;2022-12-07T04:36:14;4.63;;;2.33;;
4232;SDS011;2130;48.472;11.934;2022-12-07T04:38:43;3.20;;;2.13;;
4232;SDS011;2130;48.472;11.934;2022-12-07T04:41:11;4.83;;;2.00;;
4232;SDS011;2130;48.472;11.934;2022-12-07T04:43:39;4.53;;;2.33;;
4232;SDS011;2130;48.472;11.934;2022-12-07T04:46:06;3.00;;;1.87;;
4232;SDS011;2130;48.472;11.934;2022-12-07T04:48:35;2.03;;;1.63;;
4232;SDS011;2130;48.472;11.934;2022-12-07T04:51:04;3.53;;;2.50;;
4232;SDS011;2130;48.472;11.934;2022-12-07T04:53:33;2.90;;;1.90;;
4232;SDS011;2130;48.472;11.934;2022-12-07T04:56:01;2.47;;;1.97;;
4232;SDS011;2130;48.472;11.934;2022-12-07T04:58:29;3.10;;;2.20;;
4232;SDS011;2130;48.472;11.934;2022-12-07T05:03:50;3.20;;;2.40;;
4232;SDS011;2130;48.472;11.934;2022-12-07T05:06:20;5.60;;;3.33;;
4232;SDS011;2130;48.472;11.934;2022-12-07T05:08:48;6.60;;;3.23;;
4232;SDS011;2130;48.472;11.934;2022-12-07T05:11:16;6.60;;;3.10;;
4232;SDS011;2130;48.472;11.934;2022-12-07T05:13:58;4.60;;;2.50;;
4232;SDS011;2130;48.472;11.934;2022-12-07T05:16:26;3.80;;;2.90;;
4232;SDS011;2130;48.472;11.934;2022-12-07T05:18:54;2.80;;;2.20;;
4232;SDS011;2130;48.472;11.934;2022-12-07T05:21:24;4.00;;;2.30;;
4232;SDS011;2130;48.472;11.934;2022-12-07T05:23:52;3.90;;;2.67;;
4232;SDS011;2130;48.472;11.934;2022-12-07T05:26:20;4.03;;;2.80;;
4232;SDS011;2130;48.472;11.934;2022-12-07T05:28:50;6.40;;;2.80;;
4232;SDS011;2130;48.472;11.934;2022-12-07T05:31:18;6.10;;;2.97;;
4232;SDS011;2130;48.472;11.934;2022-12-07T05:33:47;4.60;;;3.13;;
4232;SDS011;2130;48.472;11.934;2022-12-07T05:39:09;6.80;;;3.70;;
4232;SDS011;2130;48.472;11.934;2022-12-07T05:41:37;5.40;;;2.73;;
4232;SDS011;2130;48.472;11.934;2022-12-07T05:44:25;4.33;;;2.57;;
4232;SDS011;2130;48.472;11.934;2022-12-07T05:46:53;3.50;;;2.53;;
4232;SDS011;2130;48.472;11.934;2022-12-07T05:49:21;4.23;;;3.07;;
4232;SDS011;2130;48.472;11.934;2022-12-07T05:51:51;4.90;;;3.20;;
4232;SDS011;2130;48.472;11.934;2022-12-07T05:54:19;4.27;;;3.00;;
4232;SDS011;2130;48.472;11.934;2022-12-07T05:56:47;4.70;;;2.90;;
4232;SDS011;2130;48.472;11.934;2022-12-07T05:59:15;4.83;;;2.70;;
4232;SDS011;2130;48.472;11.934;2022-12-07T06:01:55;4.07;;;3.17;;
4232;SDS011;2130;48.472;11.934;2022-12-07T06:04:25;4.97;;;2.90;;
4232;SDS011;2130;48.472;11.934;2022-12-07T06:06:56;4.23;;;3.07;;
4232;SDS011;2130;48.472;11.934;2022-12-07T06:09:25;5.13;;;3.40;;
4232;SDS011;2130;48.472;11.934;2022-12-07T06:11:54;7.10;;;3.23;;
4232;SDS011;2130;48.472;11.934;2022-12-07T06:14:40;6.00;;;3.33;;
4232;SDS011;2130;48.472;11.934;2022-12-07T06:17:08;6.23;;;3.30;;
4232;SDS011;2130;48.472;11.934;2022-12-07T06:19:37;6.13;;;2.77;;
4232;SDS011;2130;48.472;11.934;2022-12-07T06:22:07;3.67;;;2.90;;
4232;SDS011;2130;48.472;11.934;2022-12-07T06:24:35;5.83;;;2.70;;
4232;SDS011;2130;48.472;11.934;2022-12-07T06:27:03;10.50;;;5.37;;
4232;SDS011;2130;48.472;11.934;2022-12-07T06:29:32;15.90;;;5.10;;
4232;SDS011;2130;48.472;11.934;2022-12-07T06:32:00;7.10;;;3.50;;
4232;SDS011;2130;48.472;11.934;2022-12-07T06:34:28;3.80;;;2.70;;
4232;SDS011;2130;48.472;11.934;2022-12-07T06:36:56;6.10;;;2.67;;
4232;SDS011;2130;48.472;11.934;2022-12-07T06:39:26;6.70;;;3.53;;
4232;SDS011;2130;48.472;11.934;2022-12-07T06:41:56;5.80;;;3.17;;
4232;SDS011;2130;48.472;11.934;2022-12-07T06:44:25;3.70;;;2.53;;
4232;SDS011;2130;48.472;11.934;2022-12-07T06:46:53;5.40;;;3.13;;
4232;SDS011;2130;48.472;11.934;2022-12-07T06:49:38;5.67;;;2.90;;
4232;SDS011;2130;48.472;11.934;2022-12-07T06:52:06;3.80;;;2.70;;
4232;SDS011;2130;48.472;11.934;2022-12-07T06:54:35;4.67;;;3.40;;
4232;SDS011;2130;48.472;11.934;2022-12-07T06:57:03;5.30;;;3.07;;
4232;SDS011;2130;48.472;11.934;2022-12-07T06:59:31;4.67;;;2.90;;
4232;SDS011;2130;48.472;11.934;2022-12-07T07:01:59;4.23;;;2.90;;
4232;SDS011;2130;48.472;11.934;2022-12-07T07:04:27;4.70;;;2.87;;
4232;SDS011;2130;48.472;11.934;2022-12-07T07:06:55;6.40;;;3.00;;
4232;SDS011;2130;48.472;11.934;2022-12-07T07:09:25;4.10;;;2.73;;
4232;SDS011;2130;48.472;11.934;2022-12-07T07:11:55;2.93;;;2.40;;
4232;SDS011;2130;48.472;11.934;2022-12-07T07:14:23;2.90;;;2.00;;
4232;SDS011;2130;48.472;11.934;2022-12-07T07:16:51;6.33;;;2.90;;
4232;SDS011;2130;48.472;11.934;2022-12-07T07:19:20;3.40;;;2.50;;
4232;SDS011;2130;48.472;11.934;2022-12-07T07:21:49;4.60;;;2.90;;
4232;SDS011;2130;48.472;11.934;2022-12-07T07:24:17;4.47;;;3.17;;
4232;SDS011;2130;48.472;11.934;2022-12-07T07:26:45;4.60;;;2.50;;
4232;SDS011;2130;48.472;11.934;2022-12-07T07:29:14;6.23;;;3.37;;
4232;SDS011;2130;48.472;11.934;2022-12-07T07:31:42;3.53;;;2.57;;
4232;SDS011;2130;48.472;11.934;2022-12-07T07:34:10;7.07;;;3.83;;
4232;SDS011;2130;48.472;11.934;2022-12-07T07:36:38;5.10;;;2.70;;
4232;SDS011;2130;48.472;11.934;2022-12-07T07:39:06;4.87;;;3.00;;
4232;SDS011;2130;48.472;11.934;2022-12-07T07:41:35;4.93;;;2.90;;
4232;SDS011;2130;48.472;11.934;2022-12-07T07:44:03;5.30;;;2.93;;
4232;SDS011;2130;48.472;11.934;2022-12-07T07:46:32;6.43;;;3.00;;
4232;SDS011;2130;48.472;11.934;2022-12-07T07:49:00;6.43;;;2.67;;
4232;SDS011;2130;48.472;11.934;2022-12-07T07:51:28;3.80;;;2.70;;
4232;SDS011;2130;48.472;11.934;2022-12-07T07:53:56;3.80;;;2.37;;
4232;SDS011;2130;48.472;11.934;2022-12-07T07:56:24;3.20;;;2.20;;
4232;SDS011;2130;48.472;11.934;2022-12-07T07:58:53;4.53;;;2.53;;
4232;SDS011;2130;48.472;11.934;2022-12-07T08:01:21;4.03;;;2.00;;
4232;SDS011;2130;48.472;11.934;2022-12-07T08:03:50;4.37;;;2.70;;
4232;SDS011;2130;48.472;11.934;2022-12-07T08:06:18;4.10;;;2.77;;
4232;SDS011;2130;48.472;11.934;2022-12-07T08:08:46;4.13;;;2.27;;
4232;SDS011;2130;48.472;11.934;2022-12-07T08:11:14;5.47;;;2.80;;
4232;SDS011;2130;48.472;11.934;2022-12-07T08:13:44;5.20;;;2.90;;
4232;SDS011;2130;48.472;11.934;2022-12-07T08:16:13;4.17;;;2.30;;
4232;SDS011;2130;48.472;11.934;2022-12-07T08:18:41;3.43;;;2.13;;
4232;SDS011;2130;48.472;11.934;2022-12-07T08:21:13;4.50;;;2.80;;
4232;SDS011;2130;48.472;11.934;2022-12-07T08:23:42;5.13;;;2.87;;
4232;SDS011;2130;48.472;11.934;2022-12-07T08:26:10;5.30;;;3.30;;
4232;SDS011;2130;48.472;11.934;2022-12-07T08:28:40;5.30;;;2.73;;
4232;SDS011;2130;48.472;11.934;2022-12-07T08:31:11;3.53;;;2.70;;
4232;SDS011;2130;48.472;11.934;2022-12-07T08:33:40;4.33;;;2.53;;
4232;SDS011;2130;48.472;11.934;2022-12-07T08:36:09;4.47;;;2.50;;
4232;SDS011;2130;48.472;11.934;2022-12-07T08:38:40;5.60;;;3.40;;
4232;SDS011;2130;48.472;11.934;2022-12-07T08:41:28;6.00;;;2.60;;
4232;SDS011;2130;48.472;11.934;2022-12-07T08:43:57;5.73;;;3.00;;
4232;SDS011;2130;48.472;11.934;2022-12-07T08:46:25;5.17;;;2.27;;
4232;SDS011;2130;48.472;11.934;2022-12-07T08:48:55;3.27;;;2.10;;
4232;SDS011;2130;48.472;11.934;2022-12-07T08:51:25;4.43;;;3.10;;
4232;SDS011;2130;48.472;11.934;2022-12-07T08:53:54;4.70;;;2.70;;
4232;SDS011;2130;48.472;11.934;2022-12-07T08:56:23;5.00;;;2.37;;
4232;SDS011;2130;48.472;11.934;2022-12-07T08:58:52;4.27;;;2.40;;
4232;SDS011;2130;48.472;11.934;2022-12-07T09:01:21;12.50;;;3.03;;
4232;SDS011;2130;48.472;11.934;2022-12-07T09:03:49;4.60;;;3.00;;
4232;SDS011;2130;48.472;11.934;2022-12-07T09:06:17;4.57;;;3.03;;
4232;SDS011;2130;48.472;11.934;2022-12-07T09:08:48;6.23;;;3.27;;
4232;SDS011;2130;48.472;11.934;2022-12-07T09:11:20;5.83;;;2.73;;
4232;SDS011;2130;48.472;11.934;2022-12-07T09:13:54;5.73;;;2.93;;
4232;SDS011;2130;48.472;11.934;2022-12-07T09:16:22;5.17;;;2.80;;
4232;SDS011;2130;48.472;11.934;2022-12-07T09:18:50;6.80;;;3.23;;
4232;SDS011;2130;48.472;11.934;2022-12-07T09:21:18;3.10;;;2.50;;
4232;SDS011;2130;48.472;11.934;2022-12-07T09:23:46;4.00;;;2.43;;
4232;SDS011;2130;48.472;11.934;2022-12-07T09:26:15;5.40;;;2.93;;
4232;SDS011;2130;48.472;11.934;2022-12-07T09:28:44;4.17;;;2.83;;
4232;SDS011;2130;48.472;11.934;2022-12-07T09:31:12;3.33;;;2.40;;
4232;SDS011;2130;48.472;11.934;2022-12-07T09:33:52;3.70;;;2.57;;
4232;SDS011;2130;48.472;11.934;2022-12-07T09:36:21;4.60;;;3.20;;
4232;SDS011;2130;48.472;11.934;2022-12-07T09:38:49;3.20;;;2.63;;
4232;SDS011;2130;48.472;11.934;2022-12-07T09:41:17;5.10;;;3.27;;
4232;SDS011;2130;48.472;11.934;2022-12-07T09:43:47;5.07;;;2.40;;
4232;SDS011;2130;48.472;11.934;2022-12-07T09:46:15;3.70;;;2.50;;
4232;SDS011;2130;48.472;11.934;2022-12-07T09:48:44;4.33;;;2.83;;
4232;SDS011;2130;48.472;11.934;2022-12-07T09:51:14;3.30;;;2.27;;
4232;SDS011;2130;48.472;11.934;2022-12-07T09:53:49;5.67;;;2.70;;
4232;SDS011;2130;48.472;11.934;2022-12-07T09:56:18;4.60;;;2.50;;
4232;SDS011;2130;48.472;11.934;2022-12-07T09:58:48;3.70;;;2.70;;
4232;SDS011;2130;48.472;11.934;2022-12-07T10:01:17;3.60;;;2.90;;
4232;SDS011;2130;48.472;11.934;2022-12-07T10:03:48;4.27;;;3.03;;
4232;SDS011;2130;48.472;11.934;2022-12-07T10:06:18;5.50;;;3.10;;
4232;SDS011;2130;48.472;11.934;2022-12-07T10:08:47;4.67;;;2.40;;
4232;SDS011;2130;48.472;11.934;2022-12-07T10:11:15;4.07;;;2.53;;
4232;SDS011;2130;48.472;11.934;2022-12-07T10:13:44;4.10;;;2.50;;
4232;SDS011;2130;48.472;11.934;2022-12-07T10:16:30;4.23;;;2.33;;
4232;SDS011;2130;48.472;11.934;2022-12-07T10:19:17;5.40;;;2.70;;
4232;SDS011;2130;48.472;11.934;2022-12-07T10:22:00;3.50;;;2.63;;
4232;SDS011;2130;48.472;11.934;2022-12-07T10:24:29;5.03;;;2.83;;
4232;SDS011;2130;48.472;11.934;2022-12-07T10:26:58;3.40;;;2.77;;
4232;SDS011;2130;48.472;11.934;2022-12-07T10:29:28;6.13;;;3.13;;
4232;SDS011;2130;48.472;11.934;2022-12-07T10:31:59;4.20;;;2.50;;
4232;SDS011;2130;48.472;11.934;2022-12-07T10:34:28;3.50;;;2.43;;
4232;SDS011;2130;48.472;11.934;2022-12-07T10:37:15;4.43;;;2.60;;
4232;SDS011;2130;48.472;11.934;2022-12-07T10:39:45;4.40;;;2.57;;
4232;SDS011;2130;48.472;11.934;2022-12-07T10:42:18;4.93;;;2.83;;
4232;SDS011;2130;48.472;11.934;2022-12-07T10:44:47;2.90;;;2.20;;
4232;SDS011;2130;48.472;11.934;2022-12-07T10:47:21;3.90;;;2.80;;
4232;SDS011;2130;48.472;11.934;2022-12-07T10:53:12;5.20;;;2.60;;
4232;SDS011;2130;48.472;11.934;2022-12-07T10:56:16;3.40;;;1.90;;
4232;SDS011;2130;48.472;11.934;2022-12-07T10:58:57;4.50;;;2.43;;
4232;SDS011;2130;48.472;11.934;2022-12-07T11:01:33;2.43;;;2.10;;
4232;SDS011;2130;48.472;11.934;2022-12-07T11:04:11;4.60;;;2.20;;
4232;SDS011;2130;48.472;11.934;2022-12-07T11:06:45;3.50;;;2.37;;
4232;SDS011;2130;48.472;11.934;2022-12-07T11:09:23;4.70;;;3.13;;
4232;SDS011;2130;48.472;11.934;2022-12-07T11:12:25;5.53;;;2.90;;
4232;SDS011;2130;48.472;11.934;2022-12-07T11:15:02;4.03;;;2.60;;
4232;SDS011;2130;48.472;11.934;2022-12-07T11:17:35;4.73;;;3.10;;
4232;SDS011;2130;48.472;11.934;2022-12-07T11:20:13;3.90;;;2.63;;
4232;SDS011;2130;48.472;11.934;2022-12-07T11:22:49;3.00;;;2.40;;
4232;SDS011;2130;48.472;11.934;2022-12-07T11:25:22;3.93;;;2.90;;
4232;SDS011;2130;48.472;11.934;2022-12-07T11:27:58;4.50;;;3.00;;
4232;SDS011;2130;48.472;11.934;2022-12-07T11:30:37;4.73;;;2.77;;
4232;SDS011;2130;48.472;11.934;2022-12-07T11:33:11;3.87;;;2.67;;
4232;SDS011;2130;48.472;11.934;2022-12-07T11:35:51;5.43;;;2.70;;
4232;SDS011;2130;48.472;11.934;2022-12-07T11:38:24;3.87;;;2.60;;
4232;SDS011;2130;48.472;11.934;2022-12-07T11:40:56;2.83;;;2.00;;
4232;SDS011;2130;48.472;11.934;2022-12-07T11:43:44;2.60;;;1.90;;
4232;SDS011;2130;48.472;11.934;2022-12-07T11:46:27;2.83;;;2.30;;
4232;SDS011;2130;48.472;11.934;2022-12-07T11:49:02;3.50;;;1.93;;
4232;SDS011;2130;48.472;11.934;2022-12-07T11:51:34;4.70;;;2.50;;
4232;SDS011;2130;48.472;11.934;2022-12-07T11:54:05;3.53;;;2.50;;
4232;SDS011;2130;48.472;11.934;2022-12-07T11:56:44;2.40;;;1.80;;
4232;SDS011;2130;48.472;11.934;2022-12-07T11:59:25;2.77;;;2.20;;
4232;SDS011;2130;48.472;11.934;2022-12-07T12:01:58;4.03;;;2.60;;
4232;SDS011;2130;48.472;11.934;2022-12-07T12:04:33;2.50;;;1.97;;
4232;SDS011;2130;48.472;11.934;2022-12-07T12:07:10;4.80;;;2.33;;
4232;SDS011;2130;48.472;11.934;2022-12-07T12:10:04;2.77;;;2.30;;
4232;SDS011;2130;48.472;11.934;2022-12-07T12:12:44;2.60;;;2.00;;
4232;SDS011;2130;48.472;11.934;2022-12-07T12:15:48;2.67;;;2.30;;
4232;SDS011;2130;48.472;11.934;2022-12-07T12:18:29;3.00;;;1.93;;
4232;SDS011;2130;48.472;11.934;2022-12-07T12:21:07;3.30;;;2.40;;
4232;SDS011;2130;48.472;11.934;2022-12-07T12:23:40;3.17;;;2.20;;
4232;SDS011;2130;48.472;11.934;2022-12-07T12:26:14;3.20;;;2.20;;
4232;SDS011;2130;48.472;11.934;2022-12-07T12:28:50;4.27;;;2.40;;
4232;SDS011;2130;48.472;11.934;2022-12-07T12:31:34;3.10;;;2.30;;
4232;SDS011;2130;48.472;11.934;2022-12-07T12:34:29;5.07;;;2.43;;
4232;SDS011;2130;48.472;11.934;2022-12-07T12:36:58;2.37;;;1.73;;
4232;SDS011;2130;48.472;11.934;2022-12-07T12:39:28;3.57;;;1.60;;
4232;SDS011;2130;48.472;11.934;2022-12-07T12:41:58;1.93;;;1.67;;
4232;SDS011;2130;48.472;11.934;2022-12-07T12:44:40;2.93;;;1.70;;
4232;SDS011;2130;48.472;11.934;2022-12-07T12:47:39;5.60;;;2.23;;
4232;SDS011;2130;48.472;11.934;2022-12-07T12:50:22;3.30;;;1.87;;
4232;SDS011;2130;48.472;11.934;2022-12-07T12:52:57;3.63;;;1.73;;
4232;SDS011;2130;48.472;11.934;2022-12-07T12:58:35;3.43;;;1.80;;
4232;SDS011;2130;48.472;11.934;2022-12-07T13:10:34;3.00;;;1.73;;
4232;SDS011;2130;48.472;11.934;2022-12-07T13:25:33;3.23;;;1.83;;
4232;SDS011;2130;48.472;11.934;2022-12-07T13:28:12;3.93;;;2.00;;
4232;SDS011;2130;48.472;11.934;2022-12-07T13:30:46;2.00;;;1.40;;
4232;SDS011;2130;48.472;11.934;2022-12-07T13:33:18;2.13;;;1.30;;
4232;SDS011;2130;48.472;11.934;2022-12-07T13:35:47;2.33;;;1.73;;
4232;SDS011;2130;48.472;11.934;2022-12-07T13:38:19;3.87;;;1.90;;
4232;SDS011;2130;48.472;11.934;2022-12-07T13:41:02;2.07;;;1.57;;
4232;SDS011;2130;48.472;11.934;2022-12-07T13:43:43;1.97;;;1.53;;
4232;SDS011;2130;48.472;11.934;2022-12-07T13:46:15;1.33;;;1.10;;
4232;SDS011;2130;48.472;11.934;2022-12-07T13:48:46;1.90;;;1.50;;
4232;SDS011;2130;48.472;11.934;2022-12-07T13:51:17;4.80;;;1.90;;
4232;SDS011;2130;48.472;11.934;2022-12-07T13:53:48;2.40;;;1.83;;
4232;SDS011;2130;48.472;11.934;2022-12-07T13:56:18;1.70;;;1.27;;
4232;SDS011;2130;48.472;11.934;2022-12-07T13:58:49;2.40;;;1.77;;
4232;SDS011;2130;48.472;11.934;2022-12-07T14:01:20;2.53;;;1.50;;
4232;SDS011;2130;48.472;11.934;2022-12-07T14:03:49;1.83;;;1.53;;
4232;SDS011;2130;48.472;11.934;2022-12-07T14:06:20;1.67;;;1.33;;
4232;SDS011;2130;48.472;11.934;2022-12-07T14:09:06;3.73;;;1.60;;
4232;SDS011;2130;48.472;11.934;2022-12-07T14:11:37;3.90;;;1.70;;
4232;SDS011;2130;48.472;11.934;2022-12-07T14:14:06;3.17;;;1.50;;
4232;SDS011;2130;48.472;11.934;2022-12-07T14:16:40;1.90;;;1.50;;
4232;SDS011;2130;48.472;11.934;2022-12-07T14:22:26;2.50;;;1.23;;
4232;SDS011;2130;48.472;11.934;2022-12-07T14:25:00;2.83;;;1.83;;
4232;SDS011;2130;48.472;11.934;2022-12-07T14:27:48;1.53;;;1.43;;
4232;SDS011;2130;48.472;11.934;2022-12-07T14:30:23;2.43;;;1.73;;
4232;SDS011;2130;48.472;11.934;2022-12-07T14:32:57;2.90;;;1.90;;
4232;SDS011;2130;48.472;11.934;2022-12-07T14:35:27;3.40;;;1.93;;
4232;SDS011;2130;48.472;11.934;2022-12-07T14:37:56;1.43;;;1.33;;
4232;SDS011;2130;48.472;11.934;2022-12-07T14:40:26;1.87;;;1.50;;
4232;SDS011;2130;48.472;11.934;2022-12-07T14:42:56;2.50;;;1.57;;
4232;SDS011;2130;48.472;11.934;2022-12-07T14:45:27;2.23;;;1.57;;
4232;SDS011;2130;48.472;11.934;2022-12-07T14:47:57;2.83;;;1.50;;
4232;SDS011;2130;48.472;11.934;2022-12-07T14:50:48;2.53;;;1.73;;
4232;SDS011;2130;48.472;11.934;2022-12-07T14:53:39;2.60;;;1.90;;
4232;SDS011;2130;48.472;11.934;2022-12-07T14:56:09;2.97;;;1.73;;
4232;SDS011;2130;48.472;11.934;2022-12-07T14:58:39;3.53;;;1.43;;
4232;SDS011;2130;48.472;11.934;2022-12-07T15:01:08;4.17;;;1.87;;
4232;SDS011;2130;48.472;11.934;2022-12-07T15:03:38;3.80;;;1.70;;
4232;SDS011;2130;48.472;11.934;2022-12-07T15:06:07;3.43;;;1.87;;
4232;SDS011;2130;48.472;11.934;2022-12-07T15:08:38;2.83;;;1.53;;
4232;SDS011;2130;48.472;11.934;2022-12-07T15:11:09;3.30;;;2.00;;
4232;SDS011;2130;48.472;11.934;2022-12-07T15:13:37;3.33;;;1.83;;
4232;SDS011;2130;48.472;11.934;2022-12-07T15:16:24;4.53;;;2.40;;
4232;SDS011;2130;48.472;11.934;2022-12-07T15:18:58;2.83;;;2.00;;
4232;SDS011;2130;48.472;11.934;2022-12-07T15:21:46;3.07;;;2.00;;
4232;SDS011;2130;48.472;11.934;2022-12-07T15:24:15;3.37;;;1.93;;
4232;SDS011;2130;48.472;11.934;2022-12-07T15:26:44;2.60;;;1.83;;
4232;SDS011;2130;48.472;11.934;2022-12-07T15:29:13;2.17;;;1.53;;
4232;SDS011;2130;48.472;11.934;2022-12-07T15:31:49;2.47;;;2.00;;
4232;SDS011;2130;48.472;11.934;2022-12-07T15:34:25;2.17;;;1.80;;
4232;SDS011;2130;48.472;11.934;2022-12-07T15:37:05;3.13;;;1.80;;
4232;SDS011;2130;48.472;11.934;2022-12-07T15:39:35;2.97;;;2.07;;
4232;SDS011;2130;48.472;11.934;2022-12-07T15:42:04;2.60;;;2.23;;
4232;SDS011;2130;48.472;11.934;2022-12-07T15:44:33;2.53;;;1.90;;
4232;SDS011;2130;48.472;11.934;2022-12-07T15:47:21;2.60;;;2.00;;
4232;SDS011;2130;48.472;11.934;2022-12-07T15:49:51;3.20;;;2.00;;
4232;SDS011;2130;48.472;11.934;2022-12-07T15:52:22;2.93;;;1.77;;
4232;SDS011;2130;48.472;11.934;2022-12-07T15:54:51;3.33;;;2.00;;
4232;SDS011;2130;48.472;11.934;2022-12-07T15:57:20;3.83;;;2.27;;
4232;SDS011;2130;48.472;11.934;2022-12-07T15:59:51;3.67;;;2.13;;
4232;SDS011;2130;48.472;11.934;2022-12-07T16:02:20;4.70;;;2.33;;
4232;SDS011;2130;48.472;11.934;2022-12-07T16:04:55;5.33;;;2.73;;
4232;SDS011;2130;48.472;11.934;2022-12-07T16:07:23;4.63;;;3.30;;
4232;SDS011;2130;48.472;11.934;2022-12-07T16:09:52;5.73;;;3.20;;
4232;SDS011;2130;48.472;11.934;2022-12-07T16:12:21;4.13;;;3.00;;